Time;durP1;ratioP1;P1;durP2;ratioP2;P2;SDS_P1;SDS_P2;PMS_P1;PMS_P2;Temp;Humidity;BMP_temperature;BMP_pressure;BME280_temperature;BME280_humidity;BME280_pressure;Samples;Min_cycle;Max_cycle;Signal;HPM_P1;HPM_P2
2023/03/03 00:00:20;;;;;;;7.38;3.75;;;10.10;96.70;;;;;;5077911;28;20560;-71
2023/03/03 00:02:48;;;;;;;4.57;3.35;;;10.10;96.70;;;;;;5085058;28;20144;-71
2023/03/03 00:05:17;;;;;;;5.40;3.50;;;10.10;96.70;;;;;;5075099;28;20111;-71
2023/03/03 00:07:45;;;;;;;4.57;3.53;;;10.10;96.70;;;;;;5082143;28;20576;-71
2023/03/03 00:10:13;;;;;;;6.38;3.25;;;10.10;96.70;;;;;;5076032;28;20036;-71
2023/03/03 00:12:46;;;;;;;5.95;3.35;;;10.10;96.70;;;;;;5058024;28;20062;-71
2023/03/03 00:15:18;;;;;;;4.00;2.83;;;10.10;96.70;;;;;;5077629;28;20048;-71
2023/03/03 00:17:47;;;;;;;4.80;3.40;;;10.10;96.70;;;;;;5085690;28;20049;-71
2023/03/03 00:20:46;;;;;;;7.75;3.25;;;10.10;96.70;;;;;;5086677;28;20800;-71
2023/03/03 00:23:23;;;;;;;4.22;3.58;;;10.10;96.70;;;;;;5043041;28;20131;-72
2023/03/03 00:25:52;;;;;;;4.97;3.45;;;10.10;96.70;;;;;;5082107;28;20443;-71
2023/03/03 00:28:24;;;;;;;6.78;4.22;;;10.10;96.70;;;;;;5086695;28;20628;-71
2023/03/03 00:30:55;;;;;;;6.07;3.53;;;10.10;96.70;;;;;;5081203;28;20036;-71
2023/03/03 00:33:32;;;;;;;7.10;3.92;;;10.10;96.70;;;;;;5075468;28;20044;-72
2023/03/03 00:36:30;;;;;;;5.88;3.55;;;10.10;96.70;;;;;;5088569;27;20694;-71
2023/03/03 00:39:18;;;;;;;4.95;3.45;;;10.00;96.70;;;;;;5052995;28;20044;-71
2023/03/03 00:41:47;;;;;;;6.78;3.47;;;10.00;96.70;;;;;;5068916;28;20051;-72
2023/03/03 00:44:40;;;;;;;6.22;4.13;;;10.00;96.70;;;;;;5076808;28;20122;-72
2023/03/03 00:47:37;;;;;;;3.20;2.90;;;10.10;96.70;;;;;;5065916;28;20045;-71
2023/03/03 00:50:29;;;;;;;6.03;3.22;;;10.10;96.70;;;;;;5061404;28;20048;-71
2023/03/03 00:53:03;;;;;;;5.22;2.92;;;10.00;96.70;;;;;;5085486;28;20505;-71
2023/03/03 00:55:33;;;;;;;5.00;3.03;;;10.00;96.70;;;;;;5093828;28;20048;-72
2023/03/03 00:58:01;;;;;;;6.47;3.10;;;10.10;96.70;;;;;;5080322;28;20039;-71
2023/03/03 01:00:34;;;;;;;4.10;2.97;;;10.10;96.70;;;;;;5091027;28;20044;-72
2023/03/03 01:03:07;;;;;;;5.20;2.95;;;10.10;96.70;;;;;;5079401;28;20051;-71
2023/03/03 01:05:36;;;;;;;6.20;3.17;;;10.10;96.70;;;;;;5097960;28;20048;-73
2023/03/03 01:08:04;;;;;;;6.35;3.58;;;10.10;96.70;;;;;;5076261;28;20152;-72
2023/03/03 01:10:36;;;;;;;4.32;3.40;;;10.10;96.70;;;;;;5077227;28;20048;-72
2023/03/03 01:13:05;;;;;;;7.35;4.60;;;10.10;96.70;;;;;;5076936;28;20059;-72
2023/03/03 01:15:33;;;;;;;4.90;3.70;;;10.10;96.70;;;;;;5084623;28;21410;-71
2023/03/03 01:18:01;;;;;;;8.65;5.10;;;10.20;96.70;;;;;;5079837;28;20116;-71
2023/03/03 01:20:31;;;;;;;6.97;4.22;;;10.20;96.70;;;;;;5082316;28;21364;-71
2023/03/03 01:22:59;;;;;;;4.50;2.88;;;10.20;96.70;;;;;;5069316;28;20049;-71
2023/03/03 01:25:27;;;;;;;6.22;2.70;;;10.20;96.70;;;;;;5076201;28;20123;-72
2023/03/03 01:27:56;;;;;;;7.03;2.65;;;10.20;96.70;;;;;;5090186;28;20129;-71
2023/03/03 01:30:25;;;;;;;5.05;2.63;;;10.30;96.70;;;;;;5091487;28;20036;-72
2023/03/03 01:32:53;;;;;;;4.70;2.80;;;10.30;96.70;;;;;;5074931;28;20048;-71
2023/03/03 01:35:21;;;;;;;5.95;2.97;;;10.30;96.70;;;;;;5079808;28;20039;-72
2023/03/03 01:37:51;;;;;;;5.03;2.88;;;10.30;96.70;;;;;;5078266;28;20843;-72
2023/03/03 01:40:21;;;;;;;4.78;2.92;;;10.30;96.70;;;;;;5072410;28;20040;-72
2023/03/03 01:42:51;;;;;;;6.60;2.85;;;10.20;96.70;;;;;;5076982;28;20656;-72
2023/03/03 01:45:21;;;;;;;4.05;2.95;;;10.20;96.70;;;;;;5081366;28;20078;-72
2023/03/03 01:47:55;;;;;;;5.50;2.67;;;10.20;96.70;;;;;;5061772;28;20042;-72
2023/03/03 01:50:40;;;;;;;4.90;2.42;;;10.20;96.70;;;;;;5080260;28;20067;-72
2023/03/03 01:53:16;;;;;;;4.05;2.55;;;10.20;96.70;;;;;;5078455;28;20131;-72
2023/03/03 01:55:46;;;;;;;3.85;2.45;;;10.10;96.70;;;;;;5064778;28;20048;-71
2023/03/03 01:58:20;;;;;;;4.38;2.25;;;10.10;96.70;;;;;;5079557;28;20620;-72
2023/03/03 02:00:52;;;;;;;5.20;2.53;;;10.10;96.70;;;;;;5077109;28;20042;-72
2023/03/03 02:03:22;;;;;;;5.35;2.65;;;10.10;96.70;;;;;;5059976;28;20121;-72
2023/03/03 02:05:55;;;;;;;5.65;2.53;;;10.10;96.70;;;;;;5085134;28;20595;-71
2023/03/03 02:08:30;;;;;;;4.10;2.30;;;10.10;96.70;;;;;;5079146;28;20047;-72
2023/03/03 02:11:00;;;;;;;4.38;2.40;;;10.10;96.70;;;;;;5084850;28;20055;-71
2023/03/03 02:13:28;;;;;;;5.57;2.78;;;10.10;96.70;;;;;;5078059;28;20040;-71
2023/03/03 02:15:57;;;;;;;6.22;2.78;;;10.10;96.70;;;;;;5079172;28;20463;-72
2023/03/03 02:18:27;;;;;;;5.78;2.95;;;10.00;96.70;;;;;;5069382;28;20059;-71
2023/03/03 02:21:01;;;;;;;4.43;2.92;;;10.00;96.70;;;;;;5083119;28;20070;-71
2023/03/03 02:23:37;;;;;;;4.28;2.97;;;10.00;96.70;;;;;;5062364;28;20548;-72
2023/03/03 02:26:09;;;;;;;3.72;2.67;;;10.00;96.70;;;;;;5077984;28;20043;-72
2023/03/03 02:28:39;;;;;;;2.80;2.50;;;9.90;96.70;;;;;;5063625;28;20040;-72
2023/03/03 02:31:13;;;;;;;5.68;2.90;;;9.80;96.70;;;;;;5075312;28;20047;-72
2023/03/03 02:33:44;;;;;;;6.47;3.30;;;9.90;96.70;;;;;;5082668;28;20052;-72
2023/03/03 02:36:16;;;;;;;6.65;3.13;;;9.80;96.70;;;;;;5076452;28;20047;-71
2023/03/03 02:38:50;;;;;;;5.28;2.42;;;9.80;96.70;;;;;;5080501;28;20048;-71
2023/03/03 02:41:29;;;;;;;5.63;3.78;;;9.80;96.70;;;;;;5082996;28;20063;-72
2023/03/03 02:44:01;;;;;;;3.85;2.70;;;9.80;96.70;;;;;;5078081;28;20060;-72
2023/03/03 02:46:33;;;;;;;5.88;2.90;;;9.80;96.70;;;;;;5079787;28;20055;-72
2023/03/03 02:49:03;;;;;;;7.25;2.75;;;9.80;96.70;;;;;;5085104;28;20052;-71
2023/03/03 02:51:31;;;;;;;3.38;2.70;;;9.90;96.70;;;;;;5081305;28;20043;-72
2023/03/03 02:54:00;;;;;;;5.55;2.97;;;9.90;96.70;;;;;;5079495;28;20192;-72
2023/03/03 02:56:32;;;;;;;4.88;3.17;;;9.80;96.70;;;;;;5078564;28;20457;-71
2023/03/03 02:59:01;;;;;;;4.05;2.75;;;9.90;96.70;;;;;;5087757;28;20075;-72
2023/03/03 03:01:35;;;;;;;4.07;2.85;;;9.90;96.70;;;;;;5079979;28;20548;-72
2023/03/03 03:04:09;;;;;;;3.40;2.47;;;9.80;96.70;;;;;;5062762;28;20139;-72
2023/03/03 03:06:43;;;;;;;5.50;3.10;;;9.80;96.70;;;;;;5081247;28;20043;-72
2023/03/03 03:09:13;;;;;;;4.95;3.05;;;9.80;96.70;;;;;;5079428;28;20159;-71
2023/03/03 03:11:44;;;;;;;4.05;3.08;;;9.80;96.70;;;;;;5061859;28;20138;-72
2023/03/03 03:14:14;;;;;;;4.47;2.80;;;9.80;96.70;;;;;;5076638;28;20059;-71
2023/03/03 03:16:43;;;;;;;4.63;3.10;;;9.80;96.70;;;;;;5060992;28;20711;-72
2023/03/03 03:19:12;;;;;;;5.13;2.63;;;9.80;96.70;;;;;;5081570;28;20493;-72
2023/03/03 03:21:40;;;;;;;4.55;2.75;;;9.90;96.70;;;;;;5082980;28;20044;-72
2023/03/03 03:24:10;;;;;;;4.82;2.70;;;9.90;96.70;;;;;;5063296;28;20048;-72
2023/03/03 03:26:44;;;;;;;4.18;2.88;;;9.90;96.70;;;;;;5077005;28;20750;-72
2023/03/03 03:29:14;;;;;;;5.78;3.00;;;10.00;96.70;;;;;;5079383;28;20051;-72
2023/03/03 03:31:43;;;;;;;3.83;2.90;;;9.90;96.70;;;;;;5081797;28;20036;-72
2023/03/03 03:34:11;;;;;;;6.00;3.03;;;9.90;96.70;;;;;;5081566;28;20413;-72
2023/03/03 03:36:39;;;;;;;5.00;3.10;;;9.90;96.70;;;;;;5079416;28;20063;-72
2023/03/03 03:39:08;;;;;;;5.35;2.85;;;9.80;96.70;;;;;;5079715;28;20154;-72
2023/03/03 03:41:40;;;;;;;6.03;3.13;;;9.70;96.70;;;;;;5085121;28;20044;-70
2023/03/03 03:44:10;;;;;;;4.80;2.95;;;9.60;96.70;;;;;;5081180;28;20049;-71
2023/03/03 03:46:38;;;;;;;3.85;2.35;;;9.60;96.70;;;;;;5080530;28;20036;-72
2023/03/03 03:49:07;;;;;;;5.85;2.95;;;9.60;96.70;;;;;;5064022;28;20143;-71
2023/03/03 03:51:40;;;;;;;4.55;3.00;;;9.60;96.70;;;;;;5081624;28;20135;-72
2023/03/03 03:54:13;;;;;;;4.93;2.85;;;9.50;96.70;;;;;;5067210;28;20412;-74
2023/03/03 03:56:43;;;;;;;4.80;2.90;;;9.50;96.70;;;;;;5079616;28;20143;-74
2023/03/03 03:59:13;;;;;;;5.72;3.00;;;9.50;96.70;;;;;;5065779;28;20505;-75
2023/03/03 04:01:41;;;;;;;3.53;2.97;;;9.60;96.70;;;;;;5082175;28;20048;-74
2023/03/03 04:04:10;;;;;;;3.67;2.95;;;9.60;96.70;;;;;;5064323;28;20393;-73
2023/03/03 04:06:39;;;;;;;4.40;3.10;;;9.70;96.70;;;;;;5079019;28;21508;-73
2023/03/03 04:09:07;;;;;;;4.63;2.92;;;9.70;96.70;;;;;;5070564;28;20525;-73
2023/03/03 04:11:35;;;;;;;4.72;2.95;;;9.70;96.70;;;;;;5078945;28;20043;-73
2023/03/03 04:14:06;;;;;;;5.82;3.20;;;9.70;96.70;;;;;;5081518;28;20377;-74
2023/03/03 04:16:37;;;;;;;4.82;3.25;;;9.70;96.70;;;;;;5063717;28;20085;-73
2023/03/03 04:19:05;;;;;;;4.03;2.72;;;9.70;96.70;;;;;;5070559;28;20162;-74
2023/03/03 04:21:36;;;;;;;4.88;3.17;;;9.70;96.70;;;;;;5081540;28;20044;-73
2023/03/03 04:24:05;;;;;;;5.85;3.55;;;9.70;96.70;;;;;;5078439;28;20055;-73
2023/03/03 04:26:34;;;;;;;4.53;3.30;;;9.70;96.70;;;;;;5066509;28;20044;-74
2023/03/03 04:29:04;;;;;;;4.13;3.00;;;9.70;96.70;;;;;;5080055;28;20568;-75
2023/03/03 04:31:33;;;;;;;4.18;3.17;;;9.70;96.70;;;;;;5083961;28;20143;-73
2023/03/03 04:34:05;;;;;;;4.80;3.08;;;9.80;96.70;;;;;;5077612;28;20067;-74
2023/03/03 04:36:33;;;;;;;3.85;3.00;;;9.80;96.70;;;;;;5078819;28;20048;-74
2023/03/03 04:39:03;;;;;;;4.75;3.38;;;9.80;96.70;;;;;;5080622;28;20044;-73
2023/03/03 04:41:31;;;;;;;5.25;2.90;;;9.80;96.70;;;;;;5086456;28;20054;-74
2023/03/03 04:44:00;;;;;;;5.07;3.60;;;9.80;96.70;;;;;;5080408;28;20673;-74
2023/03/03 04:46:28;;;;;;;4.93;2.88;;;9.80;96.70;;;;;;5079326;28;20132;-74
2023/03/03 04:48:57;;;;;;;4.95;3.00;;;9.80;96.70;;;;;;5062291;28;20130;-73
2023/03/03 04:51:28;;;;;;;5.78;3.20;;;9.80;96.70;;;;;;5061256;28;20828;-73
2023/03/03 04:53:56;;;;;;;7.72;2.92;;;9.80;96.70;;;;;;5087016;28;20040;-73
2023/03/03 04:56:25;;;;;;;7.63;3.53;;;9.80;96.70;;;;;;5083014;28;20040;-73
2023/03/03 04:58:54;;;;;;;4.60;3.05;;;9.80;96.70;;;;;;5081454;28;20055;-73
2023/03/03 05:01:22;;;;;;;3.85;3.22;;;9.80;96.70;;;;;;5059315;28;20226;-73
2023/03/03 05:03:50;;;;;;;5.63;3.30;;;9.80;96.70;;;;;;5080473;28;20054;-73
2023/03/03 05:06:18;;;;;;;6.07;3.30;;;9.80;96.70;;;;;;5061981;28;20036;-73
2023/03/03 05:08:48;;;;;;;3.67;3.08;;;9.80;96.70;;;;;;5083659;28;20524;-73
2023/03/03 05:11:16;;;;;;;5.70;3.25;;;9.80;96.70;;;;;;5081161;28;20040;-73
2023/03/03 05:13:45;;;;;;;4.28;3.40;;;9.80;96.70;;;;;;5076852;28;20063;-74
2023/03/03 05:16:13;;;;;;;4.78;3.17;;;9.80;96.70;;;;;;5080851;28;20036;-74
2023/03/03 05:18:41;;;;;;;5.70;3.20;;;9.80;96.70;;;;;;5080537;28;20176;-74
2023/03/03 05:21:10;;;;;;;6.00;3.55;;;9.80;96.70;;;;;;5078383;28;20039;-73
2023/03/03 05:23:38;;;;;;;5.57;3.78;;;9.80;96.70;;;;;;5074687;28;20063;-73
2023/03/03 05:26:08;;;;;;;4.53;3.33;;;9.80;96.70;;;;;;5077531;28;20448;-75
2023/03/03 05:28:36;;;;;;;8.82;5.20;;;9.80;96.70;;;;;;5077891;28;20051;-75
2023/03/03 05:31:05;;;;;;;5.82;4.65;;;9.80;96.70;;;;;;5076693;28;20044;-74
2023/03/03 05:34:05;;;;;;;7.35;5.03;;;9.80;96.70;;;;;;5078803;28;20533;-71
2023/03/03 05:36:35;;;;;;;5.28;4.20;;;9.80;96.70;;;;;;5077586;28;20032;-72
2023/03/03 05:39:03;;;;;;;7.05;4.65;;;9.90;96.70;;;;;;5081507;28;20043;-72
2023/03/03 05:41:35;;;;;;;5.85;4.32;;;9.90;96.70;;;;;;5079217;28;20139;-72
2023/03/03 05:44:04;;;;;;;7.47;3.70;;;9.90;96.70;;;;;;5083001;28;20511;-72
2023/03/03 05:46:32;;;;;;;4.97;3.70;;;9.90;96.70;;;;;;5075317;28;20040;-72
2023/03/03 05:49:00;;;;;;;7.22;3.80;;;9.90;96.70;;;;;;5064911;28;20063;-72
2023/03/03 05:51:28;;;;;;;5.68;3.70;;;9.90;96.70;;;;;;5078266;28;20070;-72
2023/03/03 05:53:56;;;;;;;8.98;3.83;;;9.90;96.70;;;;;;5084688;28;20444;-72
2023/03/03 05:56:24;;;;;;;11.32;4.13;;;9.80;96.70;;;;;;5079929;28;20054;-72
2023/03/03 05:58:54;;;;;;;5.93;3.70;;;9.80;96.70;;;;;;5079355;28;20135;-72
2023/03/03 06:01:22;;;;;;;6.60;3.70;;;9.80;96.70;;;;;;5083274;28;20124;-72
2023/03/03 06:03:50;;;;;;;16.75;8.52;;;9.80;96.70;;;;;;5076390;28;20051;-71
2023/03/03 06:06:19;;;;;;;20.17;10.85;;;9.80;96.70;;;;;;5080081;28;20062;-71
2023/03/03 06:08:47;;;;;;;12.70;6.85;;;9.80;96.70;;;;;;5076164;28;20217;-72
2023/03/03 06:11:17;;;;;;;11.52;6.15;;;9.80;96.70;;;;;;5067806;28;20048;-72
2023/03/03 06:13:45;;;;;;;10.40;5.25;;;9.80;96.70;;;;;;5071827;28;20501;-72
2023/03/03 06:16:15;;;;;;;9.90;4.53;;;9.80;96.70;;;;;;5080072;28;20105;-71
2023/03/03 06:18:43;;;;;;;8.95;5.35;;;9.80;96.70;;;;;;5075923;28;20070;-72
2023/03/03 06:21:11;;;;;;;8.02;5.00;;;9.80;96.70;;;;;;5075215;28;20581;-72
2023/03/03 06:23:39;;;;;;;6.97;4.85;;;9.80;96.70;;;;;;5078121;28;20219;-72
2023/03/03 06:26:08;;;;;;;10.85;4.97;;;9.80;96.70;;;;;;5081716;28;20061;-72
2023/03/03 06:28:36;;;;;;;8.10;5.13;;;9.70;96.70;;;;;;5078765;28;20070;-73
2023/03/03 06:31:04;;;;;;;11.55;6.50;;;9.70;96.70;;;;;;5081523;28;20465;-72
2023/03/03 06:33:34;;;;;;;7.50;5.57;;;9.70;96.70;;;;;;5077887;28;20489;-72
2023/03/03 06:36:02;;;;;;;7.97;5.80;;;9.60;96.70;;;;;;5078783;28;20518;-72
2023/03/03 06:38:32;;;;;;;9.48;5.75;;;9.60;96.70;;;;;;5076999;28;20048;-72
2023/03/03 06:41:03;;;;;;;8.70;5.65;;;9.60;96.70;;;;;;5080097;28;20128;-72
2023/03/03 06:43:31;;;;;;;7.00;4.85;;;9.70;96.70;;;;;;5080844;28;20040;-72
2023/03/03 06:45:59;;;;;;;8.43;5.25;;;9.80;96.70;;;;;;5078449;28;20048;-71
2023/03/03 06:48:28;;;;;;;7.60;5.13;;;9.80;96.70;;;;;;5073219;28;20040;-71
2023/03/03 06:51:23;;;;;;;13.18;5.13;;;9.80;96.70;;;;;;5077188;28;20033;-73
2023/03/03 06:53:54;;;;;;;8.35;5.32;;;9.80;96.70;;;;;;5079333;28;20067;-72
2023/03/03 06:56:23;;;;;;;14.63;6.25;;;9.90;96.70;;;;;;5078537;28;20170;-72
2023/03/03 06:58:53;;;;;;;15.30;7.72;;;9.90;96.70;;;;;;5081703;28;20469;-72
2023/03/03 07:01:22;;;;;;;18.17;7.30;;;10.00;96.70;;;;;;5073247;28;20425;-72
2023/03/03 07:03:50;;;;;;;15.80;7.10;;;10.00;96.70;;;;;;5081775;28;20088;-72
2023/03/03 07:06:25;;;;;;;10.18;5.93;;;10.00;96.70;;;;;;5067383;28;20789;-72
2023/03/03 07:08:56;;;;;;;10.23;5.93;;;10.10;96.70;;;;;;5073212;28;20467;-72
2023/03/03 07:11:24;;;;;;;13.43;6.28;;;10.10;96.70;;;;;;5084189;28;20032;-71
2023/03/03 07:13:54;;;;;;;10.30;6.00;;;10.20;96.70;;;;;;5079528;28;20090;-71
2023/03/03 07:16:26;;;;;;;11.35;6.25;;;10.30;96.70;;;;;;5080841;28;20032;-72
2023/03/03 07:18:56;;;;;;;12.48;6.75;;;10.30;96.70;;;;;;5071909;28;20047;-72
2023/03/03 07:21:30;;;;;;;9.18;5.95;;;10.40;96.70;;;;;;5065414;28;20032;-72
2023/03/03 07:24:00;;;;;;;10.02;5.55;;;10.50;96.70;;;;;;5078847;28;20141;-72
2023/03/03 07:26:31;;;;;;;13.40;5.82;;;10.60;96.70;;;;;;5087578;28;20060;-72
2023/03/03 07:29:13;;;;;;;7.50;4.97;;;10.60;96.70;;;;;;5089939;28;20048;-72
2023/03/03 07:31:45;;;;;;;8.30;5.22;;;10.60;96.70;;;;;;5078489;28;20036;-72
2023/03/03 07:34:20;;;;;;;6.47;5.10;;;10.70;96.70;;;;;;5084348;28;20165;-72
2023/03/03 07:36:53;;;;;;;10.13;5.75;;;10.80;96.70;;;;;;5089833;28;20048;-72
2023/03/03 07:39:29;;;;;;;7.50;5.70;;;10.90;96.70;;;;;;5102829;28;20109;-73
2023/03/03 07:42:16;;;;;;;8.18;5.75;;;10.90;96.70;;;;;;5094657;28;20089;-73
2023/03/03 07:44:51;;;;;;;9.13;6.03;;;10.90;96.70;;;;;;5088787;28;20527;-74
2023/03/03 07:47:23;;;;;;;10.25;6.03;;;10.90;96.70;;;;;;5095874;28;20075;-73
2023/03/03 07:49:53;;;;;;;9.80;6.20;;;11.00;96.70;;;;;;5088931;28;20047;-72
2023/03/03 07:52:38;;;;;;;10.15;6.25;;;11.00;96.70;;;;;;5085501;28;20037;-73
2023/03/03 07:55:24;;;;;;;10.02;5.60;;;11.10;96.70;;;;;;5075370;28;20768;-72
2023/03/03 07:57:56;;;;;;;10.27;6.30;;;11.10;96.70;;;;;;5098292;28;20562;-73
2023/03/03 08:01:10;;;;;;;11.10;6.20;;;11.20;96.70;;;;;;5074896;28;20166;-71
2023/03/03 08:03:39;;;;;;;11.52;5.97;;;11.30;96.70;;;;;;5080952;28;20070;-72
2023/03/03 08:06:42;;;;;;;8.13;6.00;;;11.30;96.70;;;;;;5074917;28;20207;-71
2023/03/03 08:09:38;;;;;;;6.50;5.43;;;11.40;96.70;;;;;;5076375;28;20064;-72
2023/03/03 08:12:29;;;;;;;10.48;6.68;;;11.50;96.70;;;;;;5077005;28;20109;-72
2023/03/03 08:15:14;;;;;;;8.60;6.03;;;11.60;96.70;;;;;;5082752;28;20052;-72
2023/03/03 08:17:44;;;;;;;9.60;5.60;;;11.70;96.70;;;;;;5093057;28;20047;-71
2023/03/03 08:20:45;;;;;;;10.05;5.95;;;11.80;96.70;;;;;;5087767;28;20143;-73
2023/03/03 08:23:15;;;;;;;7.50;5.07;;;11.90;96.70;;;;;;5084530;28;20047;-72
2023/03/03 08:25:47;;;;;;;9.82;5.95;;;12.00;96.70;;;;;;5085663;28;20063;-72
2023/03/03 08:28:15;;;;;;;8.70;5.50;;;12.00;96.70;;;;;;5098544;28;20464;-72
2023/03/03 08:30:44;;;;;;;8.40;5.90;;;12.20;96.70;;;;;;5084629;28;20121;-72
2023/03/03 08:33:13;;;;;;;8.60;5.30;;;12.30;96.70;;;;;;5085492;28;20119;-73
2023/03/03 08:35:42;;;;;;;11.30;5.70;;;12.40;96.70;;;;;;5084462;28;20036;-72
2023/03/03 08:38:11;;;;;;;9.75;5.65;;;12.40;96.70;;;;;;5082270;28;20412;-71
2023/03/03 08:40:40;;;;;;;8.75;5.30;;;12.50;96.70;;;;;;5067468;28;20135;-74
2023/03/03 08:43:12;;;;;;;6.97;5.50;;;12.50;96.70;;;;;;5058073;28;20051;-72
2023/03/03 08:45:40;;;;;;;8.40;5.93;;;12.60;96.70;;;;;;5079936;28;20040;-71
2023/03/03 08:48:08;;;;;;;8.10;5.15;;;12.80;96.70;;;;;;5066459;28;20459;-71
2023/03/03 08:50:37;;;;;;;9.50;5.10;;;12.90;96.70;;;;;;5082507;28;20040;-72
2023/03/03 08:53:06;;;;;;;10.35;5.18;;;13.00;96.70;;;;;;5103271;28;20150;-71
2023/03/03 08:55:34;;;;;;;9.85;4.43;;;13.00;96.70;;;;;;5093947;28;20067;-71
2023/03/03 08:58:02;;;;;;;7.63;5.00;;;13.10;96.70;;;;;;5105237;28;20487;-71
2023/03/03 09:00:32;;;;;;;10.02;4.72;;;13.30;96.70;;;;;;5100411;28;20484;-72
2023/03/03 09:03:00;;;;;;;6.78;4.55;;;13.40;96.70;;;;;;5075966;28;20146;-71
2023/03/03 09:05:29;;;;;;;8.63;5.15;;;13.50;96.70;;;;;;5074505;28;20669;-72
2023/03/03 09:07:58;;;;;;;5.88;4.25;;;13.50;96.70;;;;;;5077090;28;20130;-72
2023/03/03 09:10:28;;;;;;;10.63;4.93;;;13.50;96.70;;;;;;5094265;28;20050;-72
2023/03/03 09:12:58;;;;;;;7.97;5.30;;;13.60;96.70;;;;;;5092574;28;20063;-72
2023/03/03 09:15:28;;;;;;;7.90;5.18;;;13.60;96.70;;;;;;5086721;28;20040;-71
2023/03/03 09:18:09;;;;;;;6.20;5.22;;;13.60;96.70;;;;;;5084177;28;20046;-71
2023/03/03 09:20:38;;;;;;;9.68;5.30;;;13.70;96.70;;;;;;5088091;28;20112;-71
2023/03/03 09:23:35;;;;;;;10.40;5.68;;;13.80;96.70;;;;;;5100337;28;20811;-71
2023/03/03 09:26:21;;;;;;;8.25;5.00;;;13.90;96.70;;;;;;5036768;28;20668;-71
2023/03/03 09:28:50;;;;;;;7.93;4.85;;;13.90;96.70;;;;;;5099407;28;20942;-71
2023/03/03 09:31:24;;;;;;;8.25;4.82;;;13.90;96.70;;;;;;5098131;28;20059;-71
2023/03/03 09:33:56;;;;;;;8.77;4.78;;;13.90;96.70;;;;;;5084470;28;20035;-70
2023/03/03 09:36:26;;;;;;;8.00;4.10;;;13.90;96.70;;;;;;5096237;28;20481;-72
2023/03/03 09:38:56;;;;;;;10.65;4.28;;;13.90;96.70;;;;;;5079088;28;20169;-71
2023/03/03 09:41:58;;;;;;;7.80;4.35;;;13.90;96.70;;;;;;5101837;28;20043;-72
2023/03/03 09:44:53;;;;;;;8.23;3.90;;;13.90;96.70;;;;;;5102997;28;20067;-74
2023/03/03 09:47:37;;;;;;;12.38;4.18;;;13.90;96.70;;;;;;5065536;28;20100;-71
2023/03/03 09:50:15;;;;;;;8.02;3.88;;;13.90;96.70;;;;;;5096360;28;20055;-72
2023/03/03 09:52:53;;;;;;;5.05;3.15;;;13.90;96.70;;;;;;5092048;28;20050;-71
2023/03/03 09:55:38;;;;;;;4.63;3.42;;;13.90;96.70;;;;;;5101718;28;20040;-71
2023/03/03 09:58:23;;;;;;;8.48;2.70;;;14.00;96.70;;;;;;5102158;28;20039;-72
2023/03/03 10:01:02;;;;;;;8.25;3.67;;;14.00;96.70;;;;;;5096851;28;20478;-71
2023/03/03 10:04:06;;;;;;;7.07;2.97;;;14.10;96.70;;;;;;5077315;28;20050;-70
2023/03/03 10:06:43;;;;;;;5.63;2.63;;;14.20;96.70;;;;;;5082938;28;20044;-71
2023/03/03 10:09:37;;;;;;;6.15;2.83;;;14.30;96.70;;;;;;5088445;28;20067;-72
2023/03/03 10:12:13;;;;;;;7.07;3.13;;;14.30;96.70;;;;;;5088861;28;20064;-76
2023/03/03 10:15:12;;;;;;;4.97;2.80;;;14.40;96.70;;;;;;5076415;28;20130;-75
2023/03/03 10:17:51;;;;;;;7.63;2.90;;;14.60;96.70;;;;;;5085971;28;20032;-72
2023/03/03 10:20:36;;;;;;;5.68;2.67;;;14.60;96.70;;;;;;5078099;28;20052;-73
2023/03/03 10:23:24;;;;;;;5.00;2.23;;;14.70;96.70;;;;;;5087013;28;20047;-72
2023/03/03 10:25:58;;;;;;;3.97;1.70;;;14.80;96.70;;;;;;5088499;28;20043;-72
2023/03/03 10:28:52;;;;;;;6.53;2.08;;;14.90;96.70;;;;;;5080028;28;20412;-73
2023/03/03 10:31:32;;;;;;;6.03;2.15;;;15.10;96.70;;;;;;5087402;28;20052;-72
2023/03/03 10:34:18;;;;;;;4.30;1.75;;;15.30;96.70;;;;;;5080100;28;20044;-72
2023/03/03 10:36:54;;;;;;;4.63;2.40;;;15.40;96.70;;;;;;5094976;28;20223;-73
2023/03/03 10:39:50;;;;;;;5.33;2.37;;;15.50;96.70;;;;;;5101177;28;20051;-73
2023/03/03 10:42:33;;;;;;;3.63;1.95;;;15.30;96.70;;;;;;5073919;28;20126;-73
2023/03/03 10:45:30;;;;;;;5.22;2.28;;;15.20;96.70;;;;;;5089836;28;20043;-72
2023/03/03 10:48:15;;;;;;;2.72;1.80;;;15.20;96.70;;;;;;5088538;28;20054;-73
2023/03/03 10:50:53;;;;;;;3.53;1.40;;;15.30;96.70;;;;;;5089786;28;20076;-72
2023/03/03 10:53:28;;;;;;;3.13;1.73;;;15.30;96.70;;;;;;5086401;28;20044;-73
2023/03/03 10:56:13;;;;;;;4.03;1.67;;;15.30;96.70;;;;;;5101533;28;20055;-72
2023/03/03 10:58:51;;;;;;;4.90;2.30;;;15.20;96.70;;;;;;5103853;28;20153;-72
2023/03/03 11:01:29;;;;;;;4.80;2.17;;;15.20;96.70;;;;;;5090302;28;20067;-72
2023/03/03 11:04:28;;;;;;;4.05;1.83;;;15.30;96.70;;;;;;5101466;28;20054;-73
2023/03/03 11:07:05;;;;;;;5.00;3.08;;;15.30;96.70;;;;;;5104563;28;20050;-72
2023/03/03 11:09:57;;;;;;;4.68;2.15;;;15.40;96.70;;;;;;5101546;28;20541;-73
2023/03/03 11:12:40;;;;;;;6.05;2.20;;;15.50;96.70;;;;;;5096351;28;20055;-73
2023/03/03 11:15:29;;;;;;;3.65;1.80;;;15.60;96.70;;;;;;5103186;28;20183;-73
2023/03/03 11:18:15;;;;;;;5.78;2.03;;;15.80;96.70;;;;;;5101492;28;20630;-72
2023/03/03 11:20:51;;;;;;;6.55;2.17;;;15.80;96.70;;;;;;5074076;28;20058;-73
2023/03/03 11:23:43;;;;;;;4.93;2.67;;;15.90;96.70;;;;;;5094998;28;20056;-73
2023/03/03 11:26:21;;;;;;;5.97;2.50;;;16.00;96.70;;;;;;5102017;28;20433;-73
2023/03/03 11:29:06;;;;;;;3.30;2.30;;;16.10;96.70;;;;;;5105096;28;20047;-73
2023/03/03 11:31:42;;;;;;;3.80;2.05;;;16.10;96.70;;;;;;5103450;28;20058;-74
2023/03/03 11:34:20;;;;;;;4.20;2.20;;;16.00;96.70;;;;;;5103875;28;20101;-73
2023/03/03 11:36:54;;;;;;;2.65;2.15;;;15.90;96.70;;;;;;5071036;28;20170;-73
2023/03/03 11:39:26;;;;;;;3.63;2.35;;;15.90;96.70;;;;;;5098093;28;20402;-73
2023/03/03 11:42:04;;;;;;;5.22;2.42;;;15.90;96.70;;;;;;5097206;28;20126;-75
2023/03/03 11:44:37;;;;;;;3.35;2.28;;;15.90;96.70;;;;;;5085004;28;20048;-74
2023/03/03 11:47:17;;;;;;;4.18;2.10;;;16.00;96.70;;;;;;5070760;28;20071;-72
2023/03/03 11:49:52;;;;;;;3.28;1.67;;;16.00;96.70;;;;;;5094387;28;20047;-73
2023/03/03 11:52:28;;;;;;;3.33;1.80;;;16.10;96.70;;;;;;5094499;28;20054;-72
2023/03/03 11:55:03;;;;;;;4.90;2.00;;;16.00;96.70;;;;;;5089743;28;20079;-73
2023/03/03 11:57:38;;;;;;;4.03;2.00;;;15.90;96.70;;;;;;5090741;28;20101;-73
2023/03/03 12:00:21;;;;;;;5.82;1.95;;;16.00;96.70;;;;;;5092710;28;20056;-73
2023/03/03 12:03:01;;;;;;;3.85;2.58;;;16.20;96.70;;;;;;5089108;28;20059;-73
2023/03/03 12:05:53;;;;;;;3.13;2.25;;;16.60;96.70;;;;;;5096525;28;20042;-73
2023/03/03 12:08:59;;;;;;;2.78;2.35;;;17.00;96.70;;;;;;5087879;28;20040;-74
2023/03/03 12:11:32;;;;;;;3.13;2.10;;;17.10;96.70;;;;;;5104245;28;20070;-73
2023/03/03 12:14:08;;;;;;;4.28;2.67;;;17.10;96.70;;;;;;5101759;28;20070;-73
2023/03/03 12:16:47;;;;;;;4.22;2.28;;;17.10;96.70;;;;;;5088040;28;20042;-73
2023/03/03 12:19:31;;;;;;;3.28;2.20;;;17.20;96.70;;;;;;5092937;28;20521;-73
2023/03/03 12:22:19;;;;;;;4.97;2.13;;;17.20;96.70;;;;;;5101323;28;20075;-73
2023/03/03 12:25:25;;;;;;;5.00;2.28;;;17.30;96.70;;;;;;5097193;28;20048;-74
2023/03/03 12:27:59;;;;;;;4.45;1.90;;;17.50;96.70;;;;;;5085299;28;20125;-73
2023/03/03 12:31:00;;;;;;;4.10;2.67;;;17.20;96.70;;;;;;5076027;28;20400;-73
2023/03/03 12:33:46;;;;;;;4.40;2.25;;;17.30;96.70;;;;;;5079977;28;20059;-74
2023/03/03 12:36:27;;;;;;;2.95;1.63;;;17.40;96.70;;;;;;5102426;28;20467;-73
2023/03/03 12:39:01;;;;;;;4.43;2.42;;;17.40;96.70;;;;;;5094187;28;20764;-74
2023/03/03 12:41:36;;;;;;;3.53;1.85;;;17.60;96.70;;;;;;5095741;28;20386;-73
2023/03/03 12:44:13;;;;;;;4.88;2.50;;;17.90;96.70;;;;;;5092507;28;20051;-72
2023/03/03 12:46:50;;;;;;;4.97;2.40;;;18.20;96.70;;;;;;5099504;28;20044;-72
2023/03/03 12:49:21;;;;;;;4.03;2.10;;;18.20;96.70;;;;;;5087757;28;20497;-72
2023/03/03 12:52:07;;;;;;;6.88;4.68;;;18.30;96.70;;;;;;5103724;28;20050;-73
2023/03/03 12:54:53;;;;;;;9.27;3.67;;;18.20;96.70;;;;;;5090240;28;20044;-73
2023/03/03 12:57:30;;;;;;;4.17;2.73;;;18.30;96.70;;;;;;5077920;28;20055;-73
2023/03/03 13:00:15;;;;;;;5.35;2.00;;;17.80;96.70;;;;;;5089632;28;20040;-73
2023/03/03 13:02:57;;;;;;;4.05;2.20;;;17.40;96.70;;;;;;5083280;28;20086;-72
2023/03/03 13:05:34;;;;;;;5.47;2.50;;;17.40;96.70;;;;;;5078402;28;20052;-72
2023/03/03 13:08:30;;;;;;;3.72;1.88;;;17.80;96.70;;;;;;5085848;28;20081;-73
2023/03/03 13:11:09;;;;;;;4.53;2.10;;;18.00;96.70;;;;;;5090152;28;20051;-72
2023/03/03 13:13:43;;;;;;;7.28;3.60;;;18.20;96.70;;;;;;5051535;28;1444002;-73
2023/03/03 13:16:13;;;;;;;3.97;1.80;;;17.80;96.70;;;;;;5093998;28;20048;-73
2023/03/03 13:18:54;;;;;;;4.40;2.30;;;17.40;96.70;;;;;;5068172;28;20047;-73
2023/03/03 13:21:28;;;;;;;5.50;2.03;;;17.20;96.70;;;;;;5096985;28;20044;-73
2023/03/03 13:24:03;;;;;;;;;;;17.20;96.70;;;;;;5099105;28;20134;-73
2023/03/03 13:26:37;;;;;;;5.13;2.47;;;17.30;96.70;;;;;;5102447;28;20005;-73
2023/03/03 13:29:15;;;;;;;5.25;1.75;;;17.40;96.70;;;;;;5104537;28;20081;-73